Time;durP1;ratioP1;P1;durP2;ratioP2;P2;SDS_P1;SDS_P2;PMS_P1;PMS_P2;Temp;Humidity;BMP_temperature;BMP_pressure;BME280_temperature;BME280_humidity;BME280_pressure;Samples;Min_cycle;Max_cycle;Signal;HPM_P1;HPM_P2
2022/06/02 00:01:20;;;;;;;6.85;4.57;;;;;;;;;;5053481;28;20510;-67
2022/06/02 00:04:07;;;;;;;5.53;4.57;;;;;;;;;;5053088;28;20086;-69
2022/06/02 00:07:10;;;;;;;6.80;4.32;;;;;;;;;;5053502;28;20036;-67
2022/06/02 00:09:44;;;;;;;5.35;4.65;;;;;;;;;;5011528;28;20454;-68
2022/06/02 00:12:50;;;;;;;5.82;4.57;;;;;;;;;;5011286;28;20095;-68
2022/06/02 00:15:26;;;;;;;6.82;4.25;;;;;;;;;;5011057;28;20515;-67
2022/06/02 00:18:08;;;;;;;6.57;4.90;;;;;;;;;;5005311;28;20034;-69
2022/06/02 00:20:55;;;;;;;5.88;4.70;;;;;;;;;;4991591;28;20061;-67
2022/06/02 00:23:49;;;;;;;7.88;4.63;;;;;;;;;;4991473;28;20058;-68
2022/06/02 00:26:41;;;;;;;6.88;5.60;;;;;;;;;;4991684;28;20053;-68
2022/06/02 00:29:07;;;;;;;5.90;4.75;;;;;;;;;;4991465;28;20038;-67
2022/06/02 00:31:48;;;;;;;5.95;4.80;;;;;;;;;;4991592;28;20554;-67
2022/06/02 00:34:25;;;;;;;6.15;4.45;;;;;;;;;;4994493;28;20208;-69
2022/06/02 00:37:18;;;;;;;5.60;4.68;;;;;;;;;;5015847;28;20022;-67
2022/06/02 00:39:46;;;;;;;6.43;4.80;;;;;;;;;;4990713;28;20059;-69
2022/06/02 00:42:23;;;;;;;6.65;4.68;;;;;;;;;;4990892;28;20030;-68
2022/06/02 00:44:59;;;;;;;7.55;5.13;;;;;;;;;;4990808;28;20088;-69
2022/06/02 00:47:36;;;;;;;5.78;4.95;;;;;;;;;;5028887;28;20511;-68
2022/06/02 00:50:20;;;;;;;8.25;4.90;;;;;;;;;;5032718;28;20474;-68
2022/06/02 00:53:18;;;;;;;6.53;4.65;;;;;;;;;;5032672;28;20519;-69
2022/06/02 00:59:15;;;;;;;6.20;4.75;;;;;;;;;;5032799;28;20032;-69
2022/06/02 01:01:41;;;;;;;6.75;4.07;;;;;;;;;;5032137;28;20522;-67
2022/06/02 01:04:14;;;;;;;6.00;4.88;;;;;;;;;;5032429;28;20104;-69
2022/06/02 01:06:49;;;;;;;7.15;5.07;;;;;;;;;;5032079;28;20029;-68
2022/06/02 01:09:43;;;;;;;6.88;5.05;;;;;;;;;;5031592;28;20095;-68
2022/06/02 01:12:43;;;;;;;6.70;5.07;;;;;;;;;;5031933;28;20018;-68
2022/06/02 01:15:29;;;;;;;5.18;4.32;;;;;;;;;;5032010;28;20018;-68
2022/06/02 01:18:07;;;;;;;6.20;4.50;;;;;;;;;;5038120;28;20035;-67
2022/06/02 01:21:07;;;;;;;6.18;4.68;;;;;;;;;;5052249;28;20029;-68
2022/06/02 01:24:17;;;;;;;6.45;4.43;;;;;;;;;;5029305;28;20038;-69
2022/06/02 01:27:01;;;;;;;5.60;4.60;;;;;;;;;;4990070;28;20045;-69
2022/06/02 01:29:45;;;;;;;7.03;4.93;;;;;;;;;;4990123;28;20039;-69
2022/06/02 01:32:30;;;;;;;8.10;5.32;;;;;;;;;;4974341;28;20404;-69
2022/06/02 01:35:34;;;;;;;7.40;5.13;;;;;;;;;;4990776;28;20039;-69
2022/06/02 01:38:18;;;;;;;7.22;5.10;;;;;;;;;;4951969;29;20066;-68
2022/06/02 01:41:11;;;;;;;6.03;4.60;;;;;;;;;;4951974;28;20110;-68
2022/06/02 01:44:07;;;;;;;6.10;4.95;;;;;;;;;;4951798;28;20093;-67
2022/06/02 01:46:33;;;;;;;6.60;4.80;;;;;;;;;;4951777;28;20031;-69
2022/06/02 01:49:17;;;;;;;6.72;5.00;;;;;;;;;;4951849;29;20040;-67
2022/06/02 01:52:03;;;;;;;7.57;4.97;;;;;;;;;;4951832;29;20035;-69
2022/06/02 01:54:54;;;;;;;5.28;4.72;;;;;;;;;;4951849;28;20436;-67
2022/06/02 01:57:43;;;;;;;6.80;5.35;;;;;;;;;;4952028;29;20047;-67
2022/06/02 02:00:16;;;;;;;6.72;4.93;;;;;;;;;;4963341;28;20195;-69
2022/06/02 02:03:02;;;;;;;7.32;5.05;;;;;;;;;;4987381;28;20034;-69
2022/06/02 02:05:53;;;;;;;6.22;4.97;;;;;;;;;;5009411;28;20030;-67
2022/06/02 02:08:47;;;;;;;5.85;4.60;;;;;;;;;;5022327;28;20202;-69
2022/06/02 02:11:22;;;;;;;6.05;5.10;;;;;;;;;;5051244;28;20023;-68
2022/06/02 02:14:06;;;;;;;7.75;4.72;;;;;;;;;;5051692;28;20029;-68
2022/06/02 02:17:05;;;;;;;6.45;4.82;;;;;;;;;;5051650;28;20059;-68
2022/06/02 02:19:50;;;;;;;7.70;5.20;;;;;;;;;;5051361;28;20481;-69
2022/06/02 02:22:43;;;;;;;7.05;4.80;;;;;;;;;;5054927;28;20053;-67
2022/06/02 02:25:24;;;;;;;5.43;4.85;;;;;;;;;;5055218;28;20063;-68
2022/06/02 02:28:10;;;;;;;8.05;4.78;;;;;;;;;;5055205;28;20025;-68
2022/06/02 02:30:46;;;;;;;7.07;4.70;;;;;;;;;;5055158;28;20509;-68
2022/06/02 02:33:20;;;;;;;8.10;5.18;;;;;;;;;;5054965;28;20025;-68
2022/06/02 02:36:08;;;;;;;9.43;4.95;;;;;;;;;;5054534;28;20367;-67
2022/06/02 02:39:05;;;;;;;5.20;4.43;;;;;;;;;;5054546;28;20478;-68
2022/06/02 02:42:03;;;;;;;6.18;4.70;;;;;;;;;;5054594;28;20036;-69
2022/06/02 02:44:38;;;;;;;5.10;4.30;;;;;;;;;;5032516;28;20034;-69
2022/06/02 02:47:17;;;;;;;7.22;5.00;;;;;;;;;;5016244;28;20038;-69
2022/06/02 02:49:54;;;;;;;7.15;4.72;;;;;;;;;;5032597;28;20026;-68
2022/06/02 02:52:24;;;;;;;5.95;4.70;;;;;;;;;;5032699;28;20029;-68
2022/06/02 02:54:55;;;;;;;5.88;4.90;;;;;;;;;;5032774;28;20061;-69
2022/06/02 02:57:51;;;;;;;9.05;4.88;;;;;;;;;;5032671;28;20426;-68
2022/06/02 03:00:23;;;;;;;7.43;5.20;;;;;;;;;;5032578;28;20124;-69
2022/06/02 03:03:16;;;;;;;11.52;5.32;;;;;;;;;;5032497;28;20116;-69
2022/06/02 03:05:59;;;;;;;7.70;5.35;;;;;;;;;;5031966;28;20108;-68
2022/06/02 03:08:24;;;;;;;7.75;5.13;;;;;;;;;;5031808;28;20045;-68
2022/06/02 03:10:57;;;;;;;7.40;4.65;;;;;;;;;;5031763;28;20037;-69
2022/06/02 03:13:48;;;;;;;5.97;4.60;;;;;;;;;;5031854;28;20475;-66
2022/06/02 03:16:15;;;;;;;4.90;4.40;;;;;;;;;;5032424;28;20035;-69
2022/06/02 03:18:59;;;;;;;6.25;4.90;;;;;;;;;;5032055;28;20033;-69
2022/06/02 03:21:31;;;;;;;5.63;4.63;;;;;;;;;;5034286;28;20136;-67
2022/06/02 03:24:39;;;;;;;8.63;4.93;;;;;;;;;;5034218;28;20037;-68
2022/06/02 03:27:32;;;;;;;7.57;4.93;;;;;;;;;;5012023;28;20523;-67
2022/06/02 03:30:13;;;;;;;5.82;4.43;;;;;;;;;;5012359;28;20037;-66
2022/06/02 03:32:41;;;;;;;7.07;5.18;;;;;;;;;;5012307;28;20026;-67
2022/06/02 03:35:12;;;;;;;7.05;4.80;;;;;;;;;;5011691;28;20032;-69
2022/06/02 03:37:53;;;;;;;9.02;5.60;;;;;;;;;;5011591;28;20034;-68
2022/06/02 03:40:30;;;;;;;10.45;4.82;;;;;;;;;;5011518;28;20625;-69
2022/06/02 03:43:43;;;;;;;7.63;5.07;;;;;;;;;;5011388;28;20045;-68
2022/06/02 03:46:23;;;;;;;10.07;5.40;;;;;;;;;;4972929;28;20126;-67
2022/06/02 03:48:52;;;;;;;6.78;4.75;;;;;;;;;;4972581;28;20500;-67
2022/06/02 03:51:25;;;;;;;6.35;4.93;;;;;;;;;;4972318;28;20475;-68
2022/06/02 03:54:06;;;;;;;8.43;4.82;;;;;;;;;;4972188;28;20492;-67
2022/06/02 03:56:58;;;;;;;6.07;4.97;;;;;;;;;;4971972;28;20066;-68
2022/06/02 03:59:43;;;;;;;6.70;4.85;;;;;;;;;;4972067;28;20108;-68
2022/06/02 04:02:13;;;;;;;10.23;5.60;;;;;;;;;;4972072;28;20043;-68
2022/06/02 04:05:44;;;;;;;8.63;4.75;;;;;;;;;;4971891;28;20070;-68
2022/06/02 04:08:24;;;;;;;6.20;5.30;;;;;;;;;;4971800;28;20126;-69
2022/06/02 04:11:00;;;;;;;9.60;4.97;;;;;;;;;;4971659;28;20042;-68
2022/06/02 04:13:57;;;;;;;12.07;5.57;;;;;;;;;;4971880;28;20027;-67
2022/06/02 04:16:41;;;;;;;8.40;6.05;;;;;;;;;;4971748;28;20117;-66
2022/06/02 04:22:49;;;;;;;8.10;5.95;;;;;;;;;;5023621;28;20111;-66
2022/06/02 04:25:27;;;;;;;7.40;5.65;;;;;;;;;;5030135;28;20551;-67
2022/06/02 04:28:11;;;;;;;7.60;5.68;;;;;;;;;;5030208;28;20514;-68
2022/06/02 04:30:42;;;;;;;8.45;6.10;;;;;;;;;;5030297;28;20040;-68
2022/06/02 04:33:32;;;;;;;8.07;6.05;;;;;;;;;;5030092;28;20040;-67
2022/06/02 04:36:13;;;;;;;8.87;5.70;;;;;;;;;;5030303;28;20030;-68
2022/06/02 04:38:57;;;;;;;9.88;6.63;;;;;;;;;;5030870;28;20049;-68
2022/06/02 04:41:46;;;;;;;11.18;6.40;;;;;;;;;;5032284;28;20030;-69
2022/06/02 04:44:47;;;;;;;10.43;6.63;;;;;;;;;;5031795;28;20025;-69
2022/06/02 04:47:25;;;;;;;8.57;6.55;;;;;;;;;;5032000;28;20061;-69
2022/06/02 04:50:07;;;;;;;9.95;6.82;;;;;;;;;;5032066;28;20124;-68
2022/06/02 04:52:47;;;;;;;11.88;7.47;;;;;;;;;;5032097;28;20104;-69
2022/06/02 04:55:31;;;;;;;10.52;7.93;;;;;;;;;;5031895;28;20112;-69
2022/06/02 04:58:15;;;;;;;10.57;7.45;;;;;;;;;;5032041;28;20025;-69
2022/06/02 05:01:08;;;;;;;13.43;7.63;;;;;;;;;;5031968;28;20022;-69
2022/06/02 05:03:45;;;;;;;10.73;7.70;;;;;;;;;;5030641;28;20029;-69
2022/06/02 05:06:19;;;;;;;9.15;7.32;;;;;;;;;;5032196;28;20128;-69
2022/06/02 05:08:44;;;;;;;14.10;8.40;;;;;;;;;;5031618;28;20033;-69
2022/06/02 05:11:24;;;;;;;10.55;7.88;;;;;;;;;;5031873;28;20025;-69
2022/06/02 05:14:02;;;;;;;12.80;7.55;;;;;;;;;;5032021;28;20025;-69
2022/06/02 05:16:52;;;;;;;10.93;7.80;;;;;;;;;;5031316;28;20084;-68
2022/06/02 05:19:41;;;;;;;12.02;8.85;;;;;;;;;;5048848;28;20029;-69
2022/06/02 05:22:19;;;;;;;10.50;8.30;;;;;;;;;;5051542;28;20402;-69
2022/06/02 05:25:12;;;;;;;10.38;8.30;;;;;;;;;;5051324;28;20037;-68
2022/06/02 05:28:05;;;;;;;11.48;7.90;;;;;;;;;;5051331;28;20029;-69
2022/06/02 05:31:04;;;;;;;10.85;8.52;;;;;;;;;;5051608;28;20031;-69
2022/06/02 05:33:46;;;;;;;11.05;8.57;;;;;;;;;;5051348;28;20021;-67
2022/06/02 05:36:12;;;;;;;10.57;7.72;;;;;;;;;;5051404;28;20029;-68
2022/06/02 05:38:56;;;;;;;11.55;8.75;;;;;;;;;;5051162;28;20041;-68
2022/06/02 05:42:06;;;;;;;10.57;7.93;;;;;;;;;;5051445;28;20025;-68
2022/06/02 05:44:49;;;;;;;11.05;8.27;;;;;;;;;;5050001;28;20526;-67
2022/06/02 05:47:27;;;;;;;13.50;7.95;;;;;;;;;;5051308;28;20029;-67
2022/06/02 05:50:14;;;;;;;9.73;8.13;;;;;;;;;;5051439;28;20029;-68
2022/06/02 05:52:45;;;;;;;13.25;8.55;;;;;;;;;;5050778;28;20056;-68
2022/06/02 05:55:25;;;;;;;11.52;7.53;;;;;;;;;;5051523;28;20390;-68
2022/06/02 05:57:54;;;;;;;;;;;;;;;;;;5055705;28;20032;-68
2022/06/02 06:00:53;;;;;;;10.88;7.10;;;;;;;;;;5055046;28;19919;-68
2022/06/02 06:03:32;;;;;;;12.60;7.72;;;;;;;;;;5054918;28;20032;-68
2022/06/02 06:06:18;;;;;;;12.00;8.25;;;;;;;;;;5054942;28;20029;-68
2022/06/02 06:08:43;;;;;;;11.57;7.68;;;;;;;;;;5054768;28;20033;-68
2022/06/02 06:11:30;;;;;;;12.25;7.85;;;;;;;;;;5053361;28;20032;-67
2022/06/02 06:14:07;;;;;;;9.85;7.00;;;;;;;;;;5054925;28;20563;-68
2022/06/02 06:17:02;;;;;;;10.40;7.25;;;;;;;;;;5055040;28;20108;-67
2022/06/02 06:19:40;;;;;;;8.93;7.45;;;;;;;;;;5054516;28;20137;-68
2022/06/02 06:22:33;;;;;;;10.18;6.82;;;;;;;;;;5054242;28;20045;-68
2022/06/02 06:25:11;;;;;;;9.85;7.00;;;;;;;;;;5053265;28;20477;-69
2022/06/02 06:28:11;;;;;;;9.82;6.50;;;;;;;;;;5054508;28;20468;-68
2022/06/02 06:30:44;;;;;;;8.68;6.38;;;;;;;;;;5051577;28;20041;-68
2022/06/02 06:33:21;;;;;;;9.15;5.90;;;;;;;;;;5054504;28;20029;-68
2022/06/02 06:36:08;;;;;;;10.02;6.88;;;;;;;;;;5054363;28;20385;-68
2022/06/02 06:38:47;;;;;;;8.55;6.18;;;;;;;;;;5053285;28;20110;-68
2022/06/02 06:41:42;;;;;;;9.02;5.80;;;;;;;;;;5054536;28;20021;-69
2022/06/02 06:44:35;;;;;;;10.13;5.50;;;;;;;;;;5054492;28;20205;-68
2022/06/02 06:47:20;;;;;;;7.82;5.75;;;;;;;;;;5054192;28;20028;-67
2022/06/02 06:49:53;;;;;;;9.25;5.53;;;;;;;;;;5054008;28;20033;-68
2022/06/02 06:52:38;;;;;;;7.68;5.63;;;;;;;;;;5054159;28;20051;-68
2022/06/02 06:55:19;;;;;;;9.32;5.63;;;;;;;;;;5054201;28;20120;-66
2022/06/02 06:58:11;;;;;;;10.68;6.25;;;;;;;;;;5054068;28;20033;-68
2022/06/02 07:00:47;;;;;;;10.00;4.80;;;;;;;;;;5031836;28;20454;-68
2022/06/02 07:03:23;;;;;;;9.55;4.95;;;;;;;;;;5031724;28;20083;-68
2022/06/02 07:05:52;;;;;;;8.27;4.65;;;;;;;;;;5031430;28;20029;-68
2022/06/02 07:08:35;;;;;;;8.30;4.53;;;;;;;;;;5031406;28;20033;-68
2022/06/02 07:14:25;;;;;;;7.57;4.45;;;;;;;;;;5031645;28;20066;-68
2022/06/02 07:16:56;;;;;;;10.95;5.05;;;;;;;;;;4992057;28;20435;-68
2022/06/02 07:19:41;;;;;;;5.10;3.72;;;;;;;;;;4991682;28;20322;-67
2022/06/02 07:22:25;;;;;;;9.38;4.20;;;;;;;;;;4992014;28;20077;-69
2022/06/02 07:24:53;;;;;;;11.23;6.05;;;;;;;;;;4992154;28;20065;-68
2022/06/02 07:27:37;;;;;;;8.52;5.47;;;;;;;;;;4985797;28;20042;-68
2022/06/02 07:30:11;;;;;;;7.28;4.60;;;;;;;;;;4982092;28;20034;-68
2022/06/02 07:33:02;;;;;;;7.30;4.35;;;;;;;;;;4981521;28;20026;-69
2022/06/02 07:35:55;;;;;;;7.18;3.92;;;;;;;;;;4979638;28;20034;-67
2022/06/02 07:38:45;;;;;;;10.02;4.25;;;;;;;;;;5003772;28;20029;-66
2022/06/02 07:41:25;;;;;;;8.48;4.22;;;;;;;;;;5008170;28;20045;-65
2022/06/02 07:44:02;;;;;;;4.95;3.47;;;;;;;;;;5008161;28;20044;-68
2022/06/02 07:46:44;;;;;;;8.13;3.85;;;;;;;;;;5010309;28;20104;-66
2022/06/02 07:49:25;;;;;;;6.43;3.22;;;;;;;;;;5007524;28;20022;-64
2022/06/02 07:52:17;;;;;;;12.35;5.57;;;;;;;;;;5008008;28;20034;-64
2022/06/02 07:55:42;;;;;;;8.93;4.35;;;;;;;;;;5048527;28;20032;-65
2022/06/02 07:58:26;;;;;;;7.43;3.00;;;;;;;;;;5010254;28;20041;-65
2022/06/02 08:01:21;;;;;;;5.25;3.00;;;;;;;;;;5008204;28;20033;-69
2022/06/02 08:03:58;;;;;;;4.82;3.25;;;;;;;;;;4993118;28;20084;-68
2022/06/02 08:06:26;;;;;;;5.70;3.10;;;;;;;;;;5010023;28;20045;-69
2022/06/02 08:09:01;;;;;;;6.28;3.42;;;;;;;;;;5007454;28;20041;-68
2022/06/02 08:12:03;;;;;;;9.52;3.15;;;;;;;;;;5009805;28;20112;-66
2022/06/02 08:14:47;;;;;;;5.80;3.03;;;;;;;;;;5007189;28;20105;-67
2022/06/02 08:17:22;;;;;;;4.05;2.70;;;;;;;;;;5007105;28;20588;-66
2022/06/02 08:20:06;;;;;;;5.20;2.67;;;;;;;;;;5008710;28;20092;-66
2022/06/02 08:23:04;;;;;;;3.83;2.85;;;;;;;;;;5007120;28;20123;-67
2022/06/02 08:25:46;;;;;;;6.07;2.90;;;;;;;;;;5009543;28;20030;-68
2022/06/02 08:29:02;;;;;;;6.32;2.50;;;;;;;;;;5021409;28;20035;-66
2022/06/02 08:31:53;;;;;;;4.57;2.75;;;;;;;;;;5009293;28;20070;-65
2022/06/02 08:34:40;;;;;;;4.55;2.80;;;;;;;;;;5008247;28;20069;-66
2022/06/02 08:37:41;;;;;;;4.55;2.50;;;;;;;;;;5008869;28;20053;-66
2022/06/02 08:40:15;;;;;;;4.28;2.42;;;;;;;;;;4940448;28;20135;-66
2022/06/02 08:43:21;;;;;;;3.05;2.20;;;;;;;;;;4941169;29;20090;-65
2022/06/02 08:46:24;;;;;;;5.72;2.17;;;;;;;;;;4941428;28;20043;-66
2022/06/02 08:49:22;;;;;;;4.72;2.50;;;;;;;;;;4941325;29;20040;-66
2022/06/02 08:52:33;;;;;;;5.07;2.33;;;;;;;;;;4939883;29;20446;-67
2022/06/02 08:55:30;;;;;;;3.05;2.10;;;;;;;;;;4937577;29;20070;-66
2022/06/02 08:58:05;;;;;;;2.80;2.08;;;;;;;;;;4929189;29;20097;-67
2022/06/02 09:00:44;;;;;;;4.13;2.10;;;;;;;;;;4933177;29;20074;-65
2022/06/02 09:03:34;;;;;;;5.60;1.90;;;;;;;;;;4933179;29;20178;-64
2022/06/02 09:06:23;;;;;;;3.45;2.00;;;;;;;;;;4939988;28;20046;-66
2022/06/02 09:09:20;;;;;;;10.27;2.60;;;;;;;;;;4971342;28;20035;-69
2022/06/02 09:12:10;;;;;;;6.85;2.00;;;;;;;;;;4952130;29;20143;-68
2022/06/02 09:15:18;;;;;;;3.60;1.83;;;;;;;;;;4952430;29;20070;-67
2022/06/02 09:17:56;;;;;;;3.60;1.80;;;;;;;;;;4985128;28;20059;-68
2022/06/02 09:20:57;;;;;;;3.10;1.65;;;;;;;;;;5010373;28;20108;-69
2022/06/02 09:23:46;;;;;;;5.13;1.73;;;;;;;;;;5009967;28;20415;-65
2022/06/02 09:26:38;;;;;;;7.95;1.90;;;;;;;;;;5008858;28;20033;-68
2022/06/02 09:29:20;;;;;;;3.47;2.10;;;;;;;;;;5008044;28;20044;-69
2022/06/02 09:32:08;;;;;;;2.90;1.90;;;;;;;;;;5016973;28;20048;-68
2022/06/02 09:34:53;;;;;;;5.60;2.00;;;;;;;;;;5017007;28;20037;-68
2022/06/02 09:37:25;;;;;;;3.42;2.35;;;;;;;;;;5016630;28;20037;-66
2022/06/02 09:40:15;;;;;;;5.85;1.80;;;;;;;;;;5016773;28;20030;-64
2022/06/02 09:42:43;;;;;;;;;;;;;;;;;;5008286;28;20042;-66
2022/06/02 09:45:48;;;;;;;2.90;1.55;;;;;;;;;;4996433;28;19920;-66
2022/06/02 09:48:16;;;;;;;2.95;1.60;;;;;;;;;;5007365;28;20045;-66
2022/06/02 09:51:20;;;;;;;5.85;1.95;;;;;;;;;;5038416;28;20025;-66
2022/06/02 09:53:46;;;;;;;2.88;1.27;;;;;;;;;;5049112;28;20121;-66
2022/06/02 09:56:42;;;;;;;5.03;1.40;;;;;;;;;;5038655;28;20056;-67
2022/06/02 09:59:17;;;;;;;6.35;1.60;;;;;;;;;;5038302;28;20032;-66
2022/06/02 10:02:10;;;;;;;7.72;1.83;;;;;;;;;;5038618;28;20029;-67
2022/06/02 10:04:45;;;;;;;3.05;1.50;;;;;;;;;;5037146;28;20431;-66
2022/06/02 10:07:25;;;;;;;2.17;1.10;;;;;;;;;;5046552;28;20083;-66
2022/06/02 10:09:59;;;;;;;7.93;1.50;;;;;;;;;;5039924;28;20043;-66
2022/06/02 10:12:54;;;;;;;2.95;1.33;;;;;;;;;;5038719;28;20033;-66
2022/06/02 10:15:20;;;;;;;2.70;1.20;;;;;;;;;;5038153;28;20033;-65
2022/06/02 10:17:48;;;;;;;3.58;1.67;;;;;;;;;;5042983;28;20088;-63
2022/06/02 10:20:21;;;;;;;4.55;1.58;;;;;;;;;;5058454;28;20036;-66
2022/06/02 10:23:02;;;;;;;2.30;1.20;;;;;;;;;;5058210;28;20045;-66
2022/06/02 10:25:42;;;;;;;2.15;1.10;;;;;;;;;;5058481;28;20111;-68
2022/06/02 10:28:29;;;;;;;3.22;1.20;;;;;;;;;;5053032;28;20037;-66
2022/06/02 10:31:10;;;;;;;1.65;1.25;;;;;;;;;;5051567;28;20071;-67
2022/06/02 10:34:03;;;;;;;2.83;1.30;;;;;;;;;;5058085;28;20036;-68
2022/06/02 10:36:50;;;;;;;4.40;1.35;;;;;;;;;;5038403;28;20021;-69
2022/06/02 10:39:28;;;;;;;4.20;1.10;;;;;;;;;;5038182;28;20037;-68
2022/06/02 10:42:18;;;;;;;3.72;1.05;;;;;;;;;;5035405;28;20022;-66
2022/06/02 10:45:20;;;;;;;4.10;1.35;;;;;;;;;;5035410;28;20375;-66
2022/06/02 10:48:30;;;;;;;3.47;1.02;;;;;;;;;;5034988;28;20099;-66
2022/06/02 10:51:12;;;;;;;5.75;1.27;;;;;;;;;;5035053;28;20057;-66
2022/06/02 10:54:01;;;;;;;3.33;1.00;;;;;;;;;;5035005;28;20107;-67
2022/06/02 10:57:09;;;;;;;2.55;0.80;;;;;;;;;;5034744;28;20075;-66
2022/06/02 11:00:00;;;;;;;1.67;0.77;;;;;;;;;;5034973;28;20033;-66
2022/06/02 11:03:02;;;;;;;1.98;1.00;;;;;;;;;;5034764;28;20033;-66
2022/06/02 11:05:34;;;;;;;2.80;0.90;;;;;;;;;;5034753;28;20061;-68
2022/06/02 11:08:34;;;;;;;2.90;1.23;;;;;;;;;;5034644;28;20044;-68
2022/06/02 11:11:37;;;;;;;4.15;0.80;;;;;;;;;;5034079;28;20072;-66
2022/06/02 11:14:21;;;;;;;2.10;1.10;;;;;;;;;;5034245;28;20033;-67
2022/06/02 11:17:38;;;;;;;3.90;1.27;;;;;;;;;;5034438;28;20025;-66
2022/06/02 11:20:40;;;;;;;4.45;1.10;;;;;;;;;;5009422;28;20036;-66
2022/06/02 11:23:20;;;;;;;4.72;1.20;;;;;;;;;;5011971;28;20068;-66
2022/06/02 11:26:13;;;;;;;4.10;1.30;;;;;;;;;;5012084;28;20442;-66
2022/06/02 11:29:05;;;;;;;5.13;1.55;;;;;;;;;;5012183;28;20042;-65
2022/06/02 11:31:40;;;;;;;3.42;0.90;;;;;;;;;;5012505;28;20030;-66
2022/06/02 11:34:24;;;;;;;6.07;1.05;;;;;;;;;;5012171;28;20100;-66
2022/06/02 11:37:04;;;;;;;2.78;1.10;;;;;;;;;;5012373;28;20055;-65
2022/06/02 11:39:41;;;;;;;2.53;0.82;;;;;;;;;;5012230;28;20036;-67
2022/06/02 11:42:07;;;;;;;3.42;1.10;;;;;;;;;;5012087;28;20053;-67
2022/06/02 11:44:51;;;;;;;3.90;1.05;;;;;;;;;;5012060;28;20100;-65
2022/06/02 11:47:22;;;;;;;2.22;1.08;;;;;;;;;;5011470;28;20137;-67
2022/06/02 11:49:53;;;;;;;1.75;0.90;;;;;;;;;;5011916;28;20033;-67
2022/06/02 11:52:49;;;;;;;3.70;1.00;;;;;;;;;;5011371;28;20037;-66
2022/06/02 11:56:05;;;;;;;3.83;1.20;;;;;;;;;;5033257;28;20482;-66
2022/06/02 11:59:14;;;;;;;2.30;1.00;;;;;;;;;;5033421;28;20088;-67
2022/06/02 12:01:40;;;;;;;4.32;0.90;;;;;;;;;;5033651;28;20033;-67
2022/06/02 12:04:25;;;;;;;2.22;0.82;;;;;;;;;;5042213;28;20060;-67
2022/06/02 12:07:29;;;;;;;2.58;1.00;;;;;;;;;;5033381;28;20097;-67
2022/06/02 12:10:36;;;;;;;1.02;0.80;;;;;;;;;;5033319;28;20026;-67
2022/06/02 12:13:21;;;;;;;2.17;0.80;;;;;;;;;;5032833;28;20045;-67
2022/06/02 12:16:27;;;;;;;3.00;0.80;;;;;;;;;;5033133;28;20025;-67
2022/06/02 12:19:11;;;;;;;2.25;0.90;;;;;;;;;;5044165;28;20040;-67
2022/06/02 12:21:51;;;;;;;5.97;1.13;;;;;;;;;;5050240;28;20585;-66
2022/06/02 12:24:34;;;;;;;2.83;0.90;;;;;;;;;;5051407;28;20450;-67
2022/06/02 12:27:15;;;;;;;2.70;1.00;;;;;;;;;;5051910;28;20013;-65
2022/06/02 12:30:18;;;;;;;3.80;1.00;;;;;;;;;;5051939;28;20017;-66
2022/06/02 12:32:58;;;;;;;2.45;1.00;;;;;;;;;;5052119;28;20388;-67
2022/06/02 12:35:42;;;;;;;2.28;0.90;;;;;;;;;;5051383;28;20106;-67
2022/06/02 12:38:32;;;;;;;3.92;1.00;;;;;;;;;;5043682;28;20026;-66
2022/06/02 12:41:11;;;;;;;;;;;;;;;;;;5041084;28;20029;-66
2022/06/02 12:44:24;;;;;;;4.70;1.50;;;;;;;;;;5052683;28;19958;-67
2022/06/02 12:47:11;;;;;;;4.82;1.00;;;;;;;;;;5052573;28;20044;-66
2022/06/02 12:49:52;;;;;;;3.08;0.95;;;;;;;;;;5052671;28;20029;-67
2022/06/02 12:52:35;;;;;;;2.97;0.95;;;;;;;;;;5052217;28;20374;-67
2022/06/02 12:55:17;;;;;;;3.92;0.90;;;;;;;;;;5052478;28;20099;-66
2022/06/02 12:57:49;;;;;;;4.82;1.05;;;;;;;;;;5052484;28;20029;-65
2022/06/02 13:00:22;;;;;;;4.28;1.15;;;;;;;;;;5052534;28;20029;-67
2022/06/02 13:03:10;;;;;;;5.18;1.20;;;;;;;;;;5052309;28;20130;-67
2022/06/02 13:06:02;;;;;;;2.70;0.90;;;;;;;;;;5051804;28;20035;-68
2022/06/02 13:08:47;;;;;;;3.47;1.00;;;;;;;;;;5052034;28;20036;-67
2022/06/02 13:11:32;;;;;;;1.95;1.02;;;;;;;;;;5052201;28;20024;-67
2022/06/02 13:14:16;;;;;;;3.75;1.42;;;;;;;;;;5052150;28;20107;-67
2022/06/02 13:17:04;;;;;;;3.25;1.10;;;;;;;;;;5052071;28;20048;-67
2022/06/02 13:19:48;;;;;;;3.78;1.10;;;;;;;;;;5051796;28;20384;-67
2022/06/02 13:22:48;;;;;;;4.20;1.00;;;;;;;;;;5051620;28;20132;-66
2022/06/02 13:25:47;;;;;;;1.63;0.88;;;;;;;;;;5050719;28;20029;-67
2022/06/02 13:28:22;;;;;;;1.98;1.10;;;;;;;;;;5052000;28;20478;-67
2022/06/02 13:31:10;;;;;;;2.08;1.10;;;;;;;;;;5052152;28;20068;-68
2022/06/02 13:33:48;;;;;;;5.38;1.35;;;;;;;;;;5052286;28;20394;-67
2022/06/02 13:36:50;;;;;;;3.03;1.00;;;;;;;;;;5052050;28;20025;-67
2022/06/02 13:39:43;;;;;;;4.15;1.20;;;;;;;;;;5052091;28;20033;-66
2022/06/02 13:42:38;;;;;;;6.53;1.65;;;;;;;;;;5052146;28;20099;-67
2022/06/02 13:45:22;;;;;;;2.00;1.00;;;;;;;;;;5050356;28;20036;-67
2022/06/02 13:48:09;;;;;;;8.50;1.20;;;;;;;;;;5051903;28;20029;-67
2022/06/02 13:51:19;;;;;;;2.53;1.10;;;;;;;;;;5051759;28;20098;-68
2022/06/02 13:59:57;;;;;;;;;;;;;;;;;;5030047;28;20032;-66
2022/06/02 14:02:40;;;;;;;2.30;0.88;;;;;;;;;;5029501;28;19924;-67
2022/06/02 14:05:31;;;;;;;2.88;1.05;;;;;;;;;;5029400;28;20122;-66
2022/06/02 14:08:11;;;;;;;3.10;1.05;;;;;;;;;;5029583;28;20207;-65
2022/06/02 14:10:43;;;;;;;5.93;1.35;;;;;;;;;;5029892;28;20036;-66
2022/06/02 14:13:45;;;;;;;3.88;1.15;;;;;;;;;;5029392;28;20117;-67
2022/06/02 14:16:38;;;;;;;1.58;0.90;;;;;;;;;;5030064;28;20037;-67
2022/06/02 14:19:31;;;;;;;8.57;2.00;;;;;;;;;;5033254;28;20060;-67
2022/06/02 14:22:18;;;;;;;1.90;0.95;;;;;;;;;;5033168;28;20056;-66
2022/06/02 14:24:49;;;;;;;2.63;0.88;;;;;;;;;;5033425;28;20034;-66
2022/06/02 14:27:37;;;;;;;1.90;0.80;;;;;;;;;;5033865;28;20113;-67
2022/06/02 14:30:18;;;;;;;1.83;0.90;;;;;;;;;;5035687;28;20052;-65
2022/06/02 14:33:36;;;;;;;2.35;1.23;;;;;;;;;;5035573;28;20095;-67
2022/06/02 14:36:27;;;;;;;4.68;0.90;;;;;;;;;;5030481;28;20042;-67
2022/06/02 14:38:53;;;;;;;3.25;0.82;;;;;;;;;;5035350;28;20025;-66
2022/06/02 14:41:24;;;;;;;2.42;0.90;;;;;;;;;;5035019;28;20032;-65
2022/06/02 14:44:22;;;;;;;1.45;0.80;;;;;;;;;;5035337;28;20030;-67
2022/06/02 14:47:16;;;;;;;2.22;0.80;;;;;;;;;;5034011;28;20033;-69
2022/06/02 14:50:28;;;;;;;2.13;0.90;;;;;;;;;;5034938;28;20109;-68
2022/06/02 14:52:59;;;;;;;7.35;1.05;;;;;;;;;;5032668;28;20037;-68
2022/06/02 14:55:47;;;;;;;1.58;0.80;;;;;;;;;;5034634;28;20025;-65
2022/06/02 14:58:35;;;;;;;1.90;0.77;;;;;;;;;;5034887;28;20026;-66
2022/06/02 15:01:08;;;;;;;2.55;0.90;;;;;;;;;;5034693;28;20533;-67
2022/06/02 15:04:05;;;;;;;1.17;0.90;;;;;;;;;;5034666;28;20047;-67
2022/06/02 15:07:17;;;;;;;4.10;1.00;;;;;;;;;;5034822;28;20072;-67
2022/06/02 15:09:52;;;;;;;2.80;0.93;;;;;;;;;;5012620;28;20052;-65
2022/06/02 15:12:34;;;;;;;1.88;0.85;;;;;;;;;;5015261;28;20042;-67
2022/06/02 15:15:32;;;;;;;3.17;0.90;;;;;;;;;;5033153;28;20080;-67
2022/06/02 15:18:12;;;;;;;2.05;0.80;;;;;;;;;;5043304;28;20029;-67
2022/06/02 15:20:38;;;;;;;;;;;;;;;;;;5046587;28;20115;-66
2022/06/02 15:23:34;;;;;;;6.70;1.20;;;;;;;;;;5034960;28;20509;-67
2022/06/02 15:26:17;;;;;;;2.17;0.90;;;;;;;;;;5043320;28;20045;-67
2022/06/02 15:29:15;;;;;;;1.60;0.93;;;;;;;;;;5046332;28;20060;-67
2022/06/02 15:32:17;;;;;;;2.05;0.90;;;;;;;;;;5024279;28;20044;-65
2022/06/02 15:35:11;;;;;;;2.30;0.80;;;;;;;;;;5037129;28;20479;-67
2022/06/02 15:38:04;;;;;;;3.13;0.90;;;;;;;;;;5023287;28;20036;-67
2022/06/02 15:40:45;;;;;;;3.05;0.77;;;;;;;;;;5038695;28;20037;-66
2022/06/02 15:43:39;;;;;;;1.70;0.90;;;;;;;;;;5029422;28;20050;-66
2022/06/02 15:46:55;;;;;;;2.47;1.20;;;;;;;;;;5059346;28;20494;-69
2022/06/02 15:49:23;;;;;;;3.35;1.10;;;;;;;;;;5011458;28;20557;-68
2022/06/02 15:52:28;;;;;;;3.10;1.20;;;;;;;;;;5011719;28;20092;-67
2022/06/02 15:55:20;;;;;;;3.78;1.10;;;;;;;;;;5000050;28;20089;-68
2022/06/02 15:58:12;;;;;;;1.65;1.08;;;;;;;;;;4999008;28;20125;-68
2022/06/02 16:01:00;;;;;;;2.72;1.00;;;;;;;;;;5011546;28;20046;-67
2022/06/02 16:03:56;;;;;;;7.05;1.35;;;;;;;;;;4995865;28;20033;-66
2022/06/02 16:06:40;;;;;;;7.70;1.17;;;;;;;;;;5010845;28;20069;-67
2022/06/02 16:12:35;;;;;;;3.80;1.38;;;;;;;;;;5011696;28;20056;-67
2022/06/02 16:15:13;;;;;;;2.53;1.20;;;;;;;;;;5010302;28;20090;-67
2022/06/02 16:17:42;;;;;;;3.58;1.10;;;;;;;;;;5011083;28;20475;-67
2022/06/02 16:20:25;;;;;;;4.68;1.20;;;;;;;;;;5021845;28;20049;-67
2022/06/02 16:23:05;;;;;;;2.58;1.00;;;;;;;;;;5033115;28;20403;-68
2022/06/02 16:25:57;;;;;;;6.38;1.60;;;;;;;;;;5031883;28;20545;-67
2022/06/02 16:28:51;;;;;;;3.25;1.17;;;;;;;;;;5032864;28;20068;-67
2022/06/02 16:31:23;;;;;;;3.05;1.30;;;;;;;;;;5010839;28;20042;-66
2022/06/02 16:34:07;;;;;;;3.22;1.10;;;;;;;;;;5011233;28;20026;-67
2022/06/02 16:36:58;;;;;;;2.00;1.02;;;;;;;;;;5011238;28;20042;-67
2022/06/02 16:39:42;;;;;;;5.78;1.35;;;;;;;;;;5009856;28;20041;-67
2022/06/02 16:42:24;;;;;;;1.60;1.10;;;;;;;;;;5010770;28;20038;-66
2022/06/02 16:45:20;;;;;;;2.63;1.00;;;;;;;;;;5010659;28;20030;-66
2022/06/02 16:48:11;;;;;;;5.57;1.25;;;;;;;;;;5010748;28;20034;-64
2022/06/02 16:50:38;;;;;;;6.35;1.40;;;;;;;;;;5000369;28;20137;-66
2022/06/02 16:56:08;;;;;;;3.60;1.23;;;;;;;;;;5010980;28;20083;-67